createdAt,value
2018-09-06T00:01:13.577Z,84.80
2018-09-06T00:03:42.301Z,85.45
2018-09-06T00:06:10.923Z,86.29
2018-09-06T00:08:39.550Z,86.30
2018-09-06T00:11:08.239Z,86.79
2018-09-06T00:13:37.420Z,86.23
2018-09-06T00:16:06.468Z,87.23
2018-09-06T00:18:35.056Z,87.08
2018-09-06T00:21:03.704Z,87.22
2018-09-06T00:23:32.288Z,88.10
2018-09-06T00:26:00.938Z,88.46
2018-09-06T00:28:29.524Z,88.33
2018-09-06T00:30:58.116Z,88.70
2018-09-06T00:33:26.704Z,88.71
2018-09-06T00:35:55.337Z,88.33
2018-09-06T00:38:24.026Z,88.47
2018-09-06T00:40:52.680Z,87.51
2018-09-06T00:43:21.277Z,86.80
2018-09-06T00:45:49.921Z,86.25
2018-09-06T00:48:18.608Z,86.44
2018-09-06T00:50:47.324Z,87.22
2018-09-06T00:53:15.933Z,87.38
2018-09-06T00:55:44.532Z,87.66
2018-09-06T00:58:13.141Z,88.29
2018-09-06T01:00:41.764Z,88.09
2018-09-06T01:03:10.410Z,88.84
2018-09-06T01:05:39.028Z,88.43
2018-09-06T01:08:07.645Z,88.40
2018-09-06T01:10:36.273Z,88.48
2018-09-06T01:13:04.881Z,88.95
2018-09-06T01:15:33.529Z,88.77
2018-09-06T01:18:02.136Z,88.81
2018-09-06T01:20:30.773Z,89.20
2018-09-06T01:22:59.381Z,89.52
2018-09-06T01:25:32.855Z,88.82
2018-09-06T01:28:01.505Z,89.44
2018-09-06T01:30:30.105Z,89.17
2018-09-06T01:32:58.702Z,89.80
2018-09-06T01:35:27.315Z,89.95
2018-09-06T01:37:55.933Z,89.59
2018-09-06T01:40:24.569Z,89.79
2018-09-06T01:42:53.318Z,89.98
2018-09-06T01:45:21.903Z,89.60
2018-09-06T01:47:50.484Z,90.02
2018-09-06T01:50:19.084Z,90.28
2018-09-06T01:52:47.740Z,90.09
2018-09-06T01:55:16.349Z,90.70
2018-09-06T01:57:44.945Z,90.39
2018-09-06T02:00:13.892Z,91.12
2018-09-06T02:02:42.480Z,90.62
2018-09-06T02:05:14.577Z,90.53
2018-09-06T02:07:43.182Z,91.48
2018-09-06T02:10:12.403Z,90.70
2018-09-06T02:12:41.396Z,91.63
2018-09-06T02:15:09.992Z,91.03
2018-09-06T02:17:38.623Z,90.54
2018-09-06T02:20:07.527Z,90.90
2018-09-06T02:22:36.391Z,91.01
2018-09-06T02:25:05.408Z,90.31
2018-09-06T02:27:34.009Z,89.79
2018-09-06T02:30:02.646Z,89.29
2018-09-06T02:32:31.254Z,89.48
2018-09-06T02:34:59.892Z,89.73
2018-09-06T02:37:28.476Z,89.84
2018-09-06T02:39:57.120Z,90.56
2018-09-06T02:42:25.789Z,91.41
2018-09-06T02:44:54.540Z,90.74
2018-09-06T02:47:23.117Z,90.42
2018-09-06T02:49:56.944Z,90.67
2018-09-06T02:52:25.534Z,90.71
2018-09-06T02:54:54.144Z,90.66
2018-09-06T02:57:22.732Z,91.31
2018-09-06T02:59:51.360Z,90.78
2018-09-06T03:02:19.963Z,91.20
2018-09-06T03:04:48.551Z,90.89
2018-09-06T03:07:17.512Z,90.94
2018-09-06T03:09:46.196Z,91.28
2018-09-06T03:12:14.960Z,91.07
2018-09-06T03:14:43.572Z,91.39
2018-09-06T03:17:12.238Z,91.41
2018-09-06T03:19:40.827Z,92.41
2018-09-06T03:22:09.429Z,92.01
2018-09-06T03:24:38.009Z,92.04
2018-09-06T03:27:07.090Z,92.63
2018-09-06T03:29:35.814Z,92.80
2018-09-06T03:32:04.400Z,92.95
2018-09-06T03:34:33.084Z,92.40
2018-09-06T03:37:01.703Z,92.81
2018-09-06T03:39:30.893Z,92.55
2018-09-06T03:41:59.723Z,92.43
2018-09-06T03:44:28.320Z,92.18
2018-09-06T03:46:56.926Z,91.78
2018-09-06T03:49:25.512Z,91.94
2018-09-06T03:51:54.556Z,91.91
2018-09-06T03:54:23.168Z,92.92
2018-09-06T03:56:51.780Z,91.36
2018-09-06T03:59:20.401Z,91.34
2018-09-06T04:01:48.998Z,92.27
2018-09-06T04:04:18.439Z,91.79
2018-09-06T04:06:47.092Z,92.17
2018-09-06T04:09:15.683Z,93.00
2018-09-06T04:11:44.273Z,92.17
2018-09-06T04:14:12.857Z,92.87
2018-09-06T04:16:41.450Z,92.73
2018-09-06T04:19:10.202Z,92.51
2018-09-06T04:21:39.869Z,92.51
2018-09-06T04:24:08.513Z,92.33
2018-09-06T04:26:37.316Z,92.69
2018-09-06T04:29:06.031Z,92.30
2018-09-06T04:31:34.669Z,92.10
2018-09-06T04:34:03.644Z,91.86
2018-09-06T04:36:32.292Z,92.39
2018-09-06T04:39:01.028Z,92.69
2018-09-06T04:41:29.667Z,92.29
2018-09-06T04:43:58.329Z,91.79
2018-09-06T04:46:26.952Z,92.53
2018-09-06T04:48:55.662Z,92.30
2018-09-06T04:51:24.333Z,91.53
2018-09-06T04:53:52.919Z,90.38
2018-09-06T04:56:21.580Z,89.60
2018-09-06T04:58:50.529Z,89.27
2018-09-06T05:01:19.135Z,88.93
2018-09-06T05:03:47.759Z,89.40
2018-09-06T05:06:16.744Z,89.63
2018-09-06T05:08:45.407Z,89.13
2018-09-06T05:11:14.216Z,88.85
2018-09-06T05:13:43.284Z,88.60
2018-09-06T05:16:11.872Z,87.99
2018-09-06T05:18:40.478Z,87.99
2018-09-06T05:21:09.831Z,87.46
2018-09-06T05:23:38.447Z,86.54
2018-09-06T05:26:07.133Z,85.75
2018-09-06T05:28:35.916Z,84.29
2018-09-06T05:31:04.527Z,83.10
2018-09-06T05:33:33.164Z,81.98
2018-09-06T05:36:01.987Z,81.36
2018-09-06T05:38:30.794Z,81.42
2018-09-06T05:40:59.420Z,80.82
2018-09-06T05:43:28.088Z,80.35
2018-09-06T05:45:56.712Z,79.64
2018-09-06T05:48:25.359Z,79.10
2018-09-06T05:50:54.036Z,77.86
2018-09-06T05:53:22.921Z,76.95
2018-09-06T05:55:51.792Z,76.67
2018-09-06T05:58:21.271Z,74.94
2018-09-06T06:00:50.527Z,73.19
2018-09-06T06:03:19.346Z,72.61
2018-09-06T06:05:48.049Z,72.01
2018-09-06T06:08:28.000Z,71.21
2018-09-06T06:10:56.978Z,68.91
2018-09-06T06:13:25.736Z,68.71
2018-09-06T06:15:54.334Z,64.36
2018-09-06T06:18:23.721Z,58.35
2018-09-06T06:20:52.984Z,52.03
2018-09-06T06:23:22.557Z,47.99
2018-09-06T06:25:51.733Z,43.40
2018-09-06T06:28:20.915Z,39.42
2018-09-06T06:30:50.082Z,38.07
2018-09-06T06:33:19.249Z,35.00
2018-09-06T06:35:48.925Z,32.94
2018-09-06T06:38:18.114Z,31.80
2018-09-06T06:40:47.288Z,30.01
2018-09-06T06:43:16.823Z,28.40
2018-09-06T06:45:46.066Z,28.82
2018-09-06T06:48:15.285Z,27.82
2018-09-06T06:50:44.493Z,27.71
2018-09-06T06:53:13.684Z,27.65
2018-09-06T06:55:42.879Z,27.15
2018-09-06T06:58:12.044Z,28.31
2018-09-06T07:00:42.232Z,27.27
2018-09-06T07:03:12.952Z,26.63
2018-09-06T07:05:42.881Z,26.59
2018-09-06T07:08:12.488Z,25.49
2018-09-06T07:10:41.804Z,26.11
2018-09-06T07:13:10.814Z,25.63
2018-09-06T07:15:39.773Z,25.44
2018-09-06T07:18:08.758Z,24.20
2018-09-06T07:20:37.874Z,23.95
2018-09-06T07:23:07.116Z,23.67
2018-09-06T07:25:36.048Z,23.66
2018-09-06T07:28:05.008Z,23.09
2018-09-06T07:30:34.282Z,23.95
2018-09-06T07:33:03.661Z,23.78
2018-09-06T07:35:32.837Z,24.08
2018-09-06T07:38:01.752Z,23.30
2018-09-06T07:40:30.970Z,23.03
2018-09-06T07:42:59.864Z,25.00
2018-09-06T07:45:28.952Z,24.08
2018-09-06T07:47:57.847Z,23.09
2018-09-06T07:50:26.774Z,22.83
2018-09-06T07:52:55.665Z,22.12
2018-09-06T07:55:24.572Z,21.97
2018-09-06T07:57:53.544Z,21.89
2018-09-06T08:00:22.461Z,20.75
2018-09-06T08:02:52.223Z,20.75
2018-09-06T08:05:21.103Z,21.04
2018-09-06T08:07:50.076Z,21.34
2018-09-06T08:10:19.049Z,21.10
2018-09-06T08:12:47.961Z,21.48
2018-09-06T08:15:17.188Z,21.44
2018-09-06T08:17:46.086Z,22.36
2018-09-06T08:20:15.024Z,22.56
2018-09-06T08:22:43.958Z,22.69
2018-09-06T08:25:12.953Z,22.55
2018-09-06T08:27:41.827Z,22.91
2018-09-06T08:30:10.769Z,23.04
2018-09-06T08:32:39.656Z,22.36
2018-09-06T08:35:08.669Z,22.13
2018-09-06T08:37:37.557Z,22.65
2018-09-06T08:40:06.464Z,22.73
2018-09-06T08:42:35.357Z,22.55
2018-09-06T08:45:04.307Z,22.64
2018-09-06T08:47:33.323Z,23.09
2018-09-06T08:50:02.355Z,24.49
2018-09-06T08:52:31.623Z,27.01
2018-09-06T08:55:00.984Z,27.97
2018-09-06T08:57:30.158Z,30.65
2018-09-06T08:59:59.679Z,30.44
2018-09-06T09:02:28.960Z,32.28
2018-09-06T09:04:58.247Z,32.88
2018-09-06T09:07:27.434Z,33.36
2018-09-06T09:09:56.820Z,35.18
2018-09-06T09:12:26.123Z,34.70
2018-09-06T09:14:55.460Z,35.73
2018-09-06T09:17:24.626Z,36.28
2018-09-06T09:19:53.823Z,37.83
2018-09-06T09:22:23.061Z,37.58
2018-09-06T09:24:52.420Z,37.86
2018-09-06T09:27:21.625Z,37.85
2018-09-06T09:29:50.809Z,38.13
2018-09-06T09:32:20.012Z,37.42
2018-09-06T09:34:49.546Z,38.15
2018-09-06T09:37:18.809Z,37.32
2018-09-06T09:39:48.320Z,37.23
2018-09-06T09:42:17.543Z,37.53
2018-09-06T09:44:46.706Z,37.21
2018-09-06T09:49:44.107Z,40.00
2018-09-06T09:52:13.333Z,41.62
2018-09-06T09:54:42.497Z,41.78
2018-09-06T09:57:11.725Z,43.91
2018-09-06T09:59:41.055Z,44.39
2018-09-06T10:02:15.538Z,44.37
2018-09-06T10:04:50.124Z,45.17
2018-09-06T10:07:24.648Z,46.08
2018-09-06T10:09:53.832Z,47.35
2018-09-06T10:12:23.106Z,47.03
2018-09-06T10:14:52.276Z,46.66
2018-09-06T10:17:21.432Z,46.04
2018-09-06T10:19:50.621Z,45.32
2018-09-06T10:22:19.799Z,46.03
2018-09-06T10:24:48.995Z,44.85
2018-09-06T10:27:18.196Z,46.02
2018-09-06T10:29:48.139Z,45.52
2018-09-06T10:32:17.304Z,44.88
2018-09-06T10:34:46.556Z,45.38
2018-09-06T10:37:16.764Z,43.19
2018-09-06T10:39:46.837Z,43.35
2018-09-06T10:42:16.055Z,42.93
2018-09-06T10:44:46.077Z,43.30
2018-09-06T10:47:15.597Z,43.20
2018-09-06T10:49:44.788Z,43.51
2018-09-06T10:52:14.030Z,42.60
2018-09-06T10:54:43.236Z,42.42
2018-09-06T10:57:12.398Z,42.42
2018-09-06T10:59:42.021Z,43.33
2018-09-06T11:02:11.583Z,43.39
2018-09-06T11:04:41.074Z,41.96
2018-09-06T11:07:10.630Z,40.60
2018-09-06T11:09:40.187Z,41.34
2018-09-06T11:12:09.450Z,41.45
2018-09-06T11:14:38.771Z,41.02
2018-09-06T11:17:08.443Z,42.73
2018-09-06T11:19:37.656Z,42.79
2018-09-06T11:22:07.442Z,41.65
2018-09-06T11:24:37.757Z,41.67
2018-09-06T11:27:07.077Z,40.97
2018-09-06T11:29:36.343Z,42.52
2018-09-06T11:32:05.683Z,43.36
2018-09-06T11:34:35.144Z,42.74
2018-09-06T11:37:04.645Z,41.32
2018-09-06T11:39:33.848Z,41.01
2018-09-06T11:42:03.289Z,41.21
2018-09-06T11:44:32.585Z,39.98
2018-09-06T11:47:01.847Z,39.79
2018-09-06T11:49:31.249Z,39.20
2018-09-06T11:52:00.470Z,39.84
2018-09-06T11:54:29.647Z,39.30
2018-09-06T11:56:59.240Z,40.05
2018-09-06T11:59:28.478Z,40.51
2018-09-06T12:01:58.145Z,41.75
2018-09-06T12:04:27.459Z,40.43
2018-09-06T12:06:56.693Z,40.47
2018-09-06T12:09:26.202Z,40.57
2018-09-06T12:11:55.494Z,40.54
2018-09-06T12:14:24.930Z,42.75
2018-09-06T12:16:54.286Z,42.36
2018-09-06T12:19:23.582Z,42.44
2018-09-06T12:21:53.034Z,39.62
2018-09-06T12:24:22.284Z,40.02
2018-09-06T12:26:51.488Z,39.26
2018-09-06T12:29:20.727Z,39.99
2018-09-06T12:31:50.008Z,39.03
2018-09-06T12:34:19.293Z,38.19
2018-09-06T12:36:48.592Z,36.33
2018-09-06T12:39:17.873Z,36.58
2018-09-06T12:41:47.696Z,37.35
2018-09-06T12:44:16.876Z,36.17
2018-09-06T12:46:46.124Z,36.64
2018-09-06T12:49:15.309Z,37.55
2018-09-06T12:51:44.487Z,37.64
2018-09-06T12:54:13.783Z,38.10
2018-09-06T12:56:43.029Z,39.45
2018-09-06T12:59:12.409Z,39.61
2018-09-06T13:01:41.668Z,38.88
2018-09-06T13:04:10.935Z,39.73
2018-09-06T13:06:40.146Z,39.86
2018-09-06T13:09:09.725Z,40.10
2018-09-06T13:11:39.302Z,38.67
2018-09-06T13:14:08.496Z,39.82
2018-09-06T13:16:37.693Z,42.52
2018-09-06T13:19:06.947Z,43.24
2018-09-06T13:21:36.426Z,44.00
2018-09-06T13:24:05.716Z,44.72
2018-09-06T13:26:34.961Z,44.89
2018-09-06T13:29:04.459Z,45.78
2018-09-06T13:31:33.701Z,46.03
2018-09-06T13:34:02.932Z,45.61
2018-09-06T13:36:32.177Z,46.39
2018-09-06T13:39:01.426Z,46.56
2018-09-06T13:41:31.007Z,47.01
2018-09-06T13:44:00.305Z,47.33
2018-09-06T13:46:29.556Z,47.34
2018-09-06T13:48:58.954Z,47.15
2018-09-06T13:51:28.189Z,46.18
2018-09-06T13:53:57.386Z,46.46
2018-09-06T13:56:26.597Z,45.25
2018-09-06T13:58:56.075Z,45.36
2018-09-06T14:01:25.325Z,45.17
2018-09-06T14:03:54.530Z,45.70
2018-09-06T14:06:24.761Z,46.56
2018-09-06T14:08:53.986Z,46.43
2018-09-06T14:11:23.241Z,47.10
2018-09-06T14:13:52.535Z,46.10
2018-09-06T14:16:21.828Z,45.88
2018-09-06T14:18:51.172Z,45.21
2018-09-06T14:21:22.231Z,46.48
2018-09-06T14:23:51.458Z,44.60
2018-09-06T14:26:20.731Z,45.73
2018-09-06T14:28:49.993Z,45.27
2018-09-06T14:31:19.361Z,44.79
2018-09-06T14:33:48.590Z,44.18
2018-09-06T14:36:17.888Z,45.58
2018-09-06T14:38:47.301Z,45.23
2018-09-06T14:41:16.673Z,44.71
2018-09-06T14:43:45.925Z,45.26
2018-09-06T14:46:15.151Z,44.22
2018-09-06T14:48:44.361Z,44.10
2018-09-06T14:51:13.641Z,44.98
2018-09-06T14:53:42.891Z,43.66
2018-09-06T14:56:12.130Z,44.52
2018-09-06T14:58:41.412Z,44.28
2018-09-06T15:01:10.714Z,43.21
2018-09-06T15:03:39.960Z,44.03
2018-09-06T15:06:09.248Z,43.92
2018-09-06T15:08:38.473Z,43.70
2018-09-06T15:11:07.795Z,44.60
2018-09-06T15:13:37.102Z,43.81
2018-09-06T15:16:06.505Z,43.66
2018-09-06T15:18:35.964Z,42.85
2018-09-06T15:21:05.141Z,43.30
2018-09-06T15:23:34.346Z,43.35
2018-09-06T15:26:03.532Z,44.27
2018-09-06T15:28:32.697Z,44.79
2018-09-06T15:31:03.836Z,44.33
2018-09-06T15:33:32.997Z,44.05
2018-09-06T15:36:02.205Z,44.55
2018-09-06T15:38:31.378Z,44.65
2018-09-06T15:41:00.556Z,44.30
2018-09-06T15:43:29.820Z,43.80
2018-09-06T15:45:59.107Z,44.47
2018-09-06T15:48:28.336Z,43.28
2018-09-06T15:50:57.597Z,43.92
2018-09-06T15:53:26.772Z,43.40
2018-09-06T15:55:56.061Z,44.01
2018-09-06T15:58:25.368Z,43.17
2018-09-06T16:00:54.848Z,44.37
2018-09-06T16:03:24.017Z,44.65
2018-09-06T16:05:53.171Z,44.41
2018-09-06T16:08:22.341Z,43.98
2018-09-06T16:10:51.492Z,44.80
2018-09-06T16:13:21.004Z,45.29
2018-09-06T16:15:50.221Z,45.35
2018-09-06T16:18:19.460Z,45.68
2018-09-06T16:20:48.639Z,45.38
2018-09-06T16:23:17.806Z,46.41
2018-09-06T16:25:47.032Z,47.11
2018-09-06T16:28:16.204Z,46.93
2018-09-06T16:30:45.396Z,47.53
2018-09-06T16:33:14.576Z,46.70
2018-09-06T16:35:43.760Z,47.12
2018-09-06T16:38:13.010Z,48.67
2018-09-06T16:40:42.186Z,47.88
2018-09-06T16:43:11.366Z,47.86
2018-09-06T16:45:40.551Z,48.75
2018-09-06T16:48:09.754Z,49.79
2018-09-06T16:50:39.135Z,49.44
2018-09-06T16:53:08.303Z,50.06
2018-09-06T16:55:37.565Z,50.42
2018-09-06T16:58:06.716Z,50.91
2018-09-06T17:00:35.925Z,50.96
2018-09-06T17:03:05.596Z,50.80
2018-09-06T17:05:34.785Z,51.35
2018-09-06T17:08:03.954Z,52.36
2018-09-06T17:10:33.144Z,51.95
2018-09-06T17:13:02.377Z,51.96
2018-09-06T17:15:31.613Z,53.34
2018-09-06T17:18:00.847Z,53.28
2018-09-06T17:20:30.095Z,54.63
2018-09-06T17:22:59.462Z,55.32
2018-09-06T17:25:28.133Z,55.96
2018-09-06T17:27:57.429Z,56.84
2018-09-06T17:30:26.630Z,56.76
2018-09-06T17:32:55.920Z,56.65
2018-09-06T17:35:25.217Z,57.53
2018-09-06T17:37:53.845Z,57.50
2018-09-06T17:40:23.195Z,57.73
2018-09-06T17:42:51.933Z,57.76
2018-09-06T17:45:20.549Z,58.46
2018-09-06T17:47:49.314Z,58.17
2018-09-06T17:50:18.103Z,58.56
2018-09-06T17:52:46.755Z,58.97
2018-09-06T17:55:15.365Z,59.37
2018-09-06T17:57:43.968Z,60.38
2018-09-06T18:00:12.595Z,61.00
2018-09-06T18:02:41.270Z,60.89
2018-09-06T18:05:10.094Z,60.94
2018-09-06T18:07:38.734Z,61.01
2018-09-06T18:10:07.408Z,60.90
2018-09-06T18:12:36.314Z,61.47
2018-09-06T18:15:05.517Z,61.90
2018-09-06T18:17:34.289Z,63.16
2018-09-06T18:20:03.013Z,63.03
2018-09-06T18:22:31.629Z,62.62
2018-09-06T18:25:00.650Z,63.48
2018-09-06T18:27:29.313Z,64.11
2018-09-06T18:29:58.032Z,65.68
2018-09-06T18:32:27.040Z,66.32
2018-09-06T18:34:55.648Z,66.04
2018-09-06T18:37:24.274Z,65.88
2018-09-06T18:39:52.944Z,65.60
2018-09-06T18:42:21.608Z,65.55
2018-09-06T18:44:50.222Z,66.04
2018-09-06T18:47:19.085Z,65.20
2018-09-06T18:49:47.725Z,66.04
2018-09-06T18:52:16.488Z,65.31
2018-09-06T18:54:45.482Z,65.47
2018-09-06T18:57:14.673Z,66.77
2018-09-06T18:59:43.407Z,66.91
2018-09-06T19:02:12.165Z,66.73
2018-09-06T19:04:40.860Z,66.34
2018-09-06T19:07:09.497Z,66.12
2018-09-06T19:09:38.106Z,66.90
2018-09-06T19:12:07.057Z,66.90
2018-09-06T19:14:35.718Z,66.93
2018-09-06T19:17:04.332Z,67.25
2018-09-06T19:19:32.967Z,67.51
2018-09-06T19:22:01.630Z,67.47
2018-09-06T19:24:30.252Z,67.61
2018-09-06T19:26:58.844Z,67.91
2018-09-06T19:29:27.485Z,68.27
2018-09-06T19:31:56.327Z,68.77
2018-09-06T19:34:25.069Z,69.03
2018-09-06T19:36:53.680Z,68.95
2018-09-06T19:39:22.317Z,69.28
2018-09-06T19:41:50.922Z,69.92
2018-09-06T19:44:19.731Z,69.22
2018-09-06T19:46:48.354Z,70.34
2018-09-06T19:49:16.971Z,70.57
2018-09-06T19:51:45.601Z,69.87
2018-09-06T19:54:14.313Z,69.82
2018-09-06T19:56:43.129Z,70.26
2018-09-06T19:59:11.741Z,69.71
2018-09-06T20:01:40.745Z,69.80
2018-09-06T20:04:09.379Z,70.13
2018-09-06T20:06:38.053Z,70.37
2018-09-06T20:09:07.618Z,69.60
2018-09-06T20:11:36.264Z,69.53
2018-09-06T20:14:04.883Z,70.03
2018-09-06T20:16:33.480Z,70.01
2018-09-06T20:19:02.149Z,70.14
2018-09-06T20:21:30.815Z,69.98
2018-09-06T20:23:59.428Z,70.10
2018-09-06T20:26:28.127Z,70.42
2018-09-06T20:28:56.748Z,70.11
2018-09-06T20:31:25.827Z,70.24
2018-09-06T20:33:54.490Z,70.73
2018-09-06T20:36:23.198Z,70.69
2018-09-06T20:38:52.064Z,70.76
2018-09-06T20:41:20.681Z,70.79
2018-09-06T20:43:49.355Z,70.70
2018-09-06T20:46:17.974Z,71.01
2018-09-06T20:48:46.581Z,71.02
2018-09-06T20:51:15.181Z,71.58
2018-09-06T20:53:43.812Z,71.84
2018-09-06T20:56:12.405Z,72.36
2018-09-06T20:58:41.069Z,72.98
2018-09-06T21:01:09.715Z,73.22
2018-09-06T21:03:38.380Z,74.17
2018-09-06T21:06:07.048Z,73.81
2018-09-06T21:08:35.726Z,73.70
2018-09-06T21:11:04.806Z,73.88
2018-09-06T21:13:33.429Z,73.93
2018-09-06T21:16:02.129Z,73.77
2018-09-06T21:18:30.806Z,74.18
2018-09-06T21:20:59.424Z,74.69
2018-09-06T21:23:28.106Z,74.72
2018-09-06T21:25:56.882Z,74.94
2018-09-06T21:28:25.493Z,75.03
2018-09-06T21:30:54.133Z,74.90
2018-09-06T21:33:22.785Z,74.64
2018-09-06T21:35:51.437Z,75.18
2018-09-06T21:38:20.053Z,75.26
2018-09-06T21:40:48.661Z,75.66
2018-09-06T21:43:17.342Z,75.35
2018-09-06T21:45:46.106Z,75.70
2018-09-06T21:48:14.799Z,75.76
2018-09-06T21:50:43.421Z,75.97
2018-09-06T21:53:12.048Z,76.53
2018-09-06T21:55:40.773Z,76.64
2018-09-06T21:58:09.395Z,77.18
2018-09-06T22:00:38.143Z,77.19
2018-09-06T22:03:12.117Z,76.39
2018-09-06T22:05:40.764Z,76.69
2018-09-06T22:08:09.604Z,76.84
2018-09-06T22:10:38.291Z,77.37
2018-09-06T22:13:06.898Z,77.48
2018-09-06T22:15:35.560Z,77.66
2018-09-06T22:18:04.225Z,77.24
2018-09-06T22:20:32.880Z,77.94
2018-09-06T22:23:01.521Z,77.78
2018-09-06T22:25:30.128Z,77.97
2018-09-06T22:27:58.746Z,77.72
2018-09-06T22:30:27.703Z,77.64
2018-09-06T22:32:56.333Z,77.90
2018-09-06T22:35:24.946Z,78.10
2018-09-06T22:37:53.549Z,78.53
2018-09-06T22:40:22.144Z,79.30
2018-09-06T22:42:50.781Z,79.20
2018-09-06T22:45:19.394Z,79.71
2018-09-06T22:47:47.995Z,80.14
2018-09-06T22:50:16.635Z,80.14
2018-09-06T22:52:45.219Z,80.26
2018-09-06T22:55:13.808Z,80.81
2018-09-06T22:57:42.433Z,81.16
2018-09-06T23:00:11.032Z,81.10
2018-09-06T23:02:44.757Z,81.08
2018-09-06T23:05:13.706Z,81.31
2018-09-06T23:07:42.284Z,81.84
2018-09-06T23:10:11.154Z,81.59
2018-09-06T23:12:39.743Z,81.96
2018-09-06T23:15:08.380Z,81.91
2018-09-06T23:17:37.065Z,81.34
2018-09-06T23:20:05.705Z,81.58
2018-09-06T23:22:38.363Z,81.90
2018-09-06T23:25:08.174Z,82.52
2018-09-06T23:27:36.793Z,82.44
2018-09-06T23:30:05.974Z,82.44
2018-09-06T23:32:34.865Z,83.49
2018-09-06T23:35:03.516Z,83.52
2018-09-06T23:37:32.093Z,83.26
2018-09-06T23:40:00.733Z,82.35
2018-09-06T23:42:29.348Z,82.93
2018-09-06T23:44:57.933Z,84.42
2018-09-06T23:47:26.528Z,84.48
2018-09-06T23:49:55.142Z,84.19
2018-09-06T23:52:23.763Z,85.10
2018-09-06T23:54:52.704Z,85.44
2018-09-06T23:57:21.282Z,85.21
2018-09-06T23:59:49.857Z,85.91
